sensor_id;sensor_type;location;lat;lon;timestamp;pressure;altitude;pressure_sealevel;temperature;humidity
14790;BME280;7486;51.010;10.366;2023-12-28T00:02:29;97941.03;;;3.85;60.39
14790;BME280;7486;51.010;10.366;2023-12-28T00:05:14;97953.09;;;4.02;60.36
14790;BME280;7486;51.010;10.366;2023-12-28T00:08:00;97938.06;;;3.88;60.77
14790;BME280;7486;51.010;10.366;2023-12-28T00:10:48;97946.34;;;3.69;61.27
14790;BME280;7486;51.010;10.366;2023-12-28T00:13:33;97940.75;;;3.80;61.26
14790;BME280;7486;51.010;10.366;2023-12-28T00:16:19;97935.88;;;3.60;61.29
14790;BME280;7486;51.010;10.366;2023-12-28T00:19:04;97936.50;;;3.71;61.55
14790;BME280;7486;51.010;10.366;2023-12-28T00:21:50;97946.16;;;3.78;61.06
14790;BME280;7486;51.010;10.366;2023-12-28T00:24:35;97954.47;;;3.90;60.69
14790;BME280;7486;51.010;10.366;2023-12-28T00:27:21;97949.41;;;3.80;60.29
14790;BME280;7486;51.010;10.366;2023-12-28T00:30:07;97949.25;;;3.74;60.54
14790;BME280;7486;51.010;10.366;2023-12-28T00:32:52;97939.75;;;3.81;60.76
14790;BME280;7486;51.010;10.366;2023-12-28T00:35:38;97948.31;;;3.66;60.43
14790;BME280;7486;51.010;10.366;2023-12-28T00:38:23;97960.34;;;3.84;60.49
14790;BME280;7486;51.010;10.366;2023-12-28T00:41:09;97967.72;;;3.88;60.43
14790;BME280;7486;51.010;10.366;2023-12-28T00:43:54;97947.25;;;3.84;60.23
14790;BME280;7486;51.010;10.366;2023-12-28T00:46:40;97952.22;;;3.79;60.63
14790;BME280;7486;51.010;10.366;2023-12-28T00:49:26;97948.75;;;3.86;60.69
14790;BME280;7486;51.010;10.366;2023-12-28T00:52:12;97943.28;;;3.96;59.73
14790;BME280;7486;51.010;10.366;2023-12-28T00:54:57;97944.81;;;3.90;59.64
14790;BME280;7486;51.010;10.366;2023-12-28T00:57:43;97953.50;;;3.83;59.93
14790;BME280;7486;51.010;10.366;2023-12-28T01:00:28;97945.91;;;3.96;59.30
14790;BME280;7486;51.010;10.366;2023-12-28T01:03:14;97969.19;;;3.91;59.81
14790;BME280;7486;51.010;10.366;2023-12-28T01:05:59;97968.69;;;3.95;58.39
14790;BME280;7486;51.010;10.366;2023-12-28T01:08:45;97966.06;;;3.95;58.18
14790;BME280;7486;51.010;10.366;2023-12-28T01:11:31;97947.22;;;3.92;58.02
14790;BME280;7486;51.010;10.366;2023-12-28T01:14:16;97955.94;;;3.84;58.95
14790;BME280;7486;51.010;10.366;2023-12-28T01:17:01;97963.31;;;3.81;58.47
14790;BME280;7486;51.010;10.366;2023-12-28T01:19:47;97942.34;;;3.89;58.24
14790;BME280;7486;51.010;10.366;2023-12-28T01:22:32;97947.63;;;4.11;58.25
14790;BME280;7486;51.010;10.366;2023-12-28T01:25:18;97958.31;;;4.10;58.10
14790;BME280;7486;51.010;10.366;2023-12-28T01:28:03;97941.16;;;3.91;58.10
14790;BME280;7486;51.010;10.366;2023-12-28T01:30:49;97947.75;;;4.18;57.63
14790;BME280;7486;51.010;10.366;2023-12-28T01:33:35;97945.44;;;4.23;57.63
14790;BME280;7486;51.010;10.366;2023-12-28T01:36:22;97949.72;;;4.24;57.46
14790;BME280;7486;51.010;10.366;2023-12-28T01:39:07;97960.13;;;4.32;57.10
14790;BME280;7486;51.010;10.366;2023-12-28T01:41:53;97966.25;;;4.55;57.41
14790;BME280;7486;51.010;10.366;2023-12-28T01:44:39;97970.81;;;4.53;57.23
14790;BME280;7486;51.010;10.366;2023-12-28T01:47:25;97919.81;;;4.10;56.88
14790;BME280;7486;51.010;10.366;2023-12-28T01:50:11;97978.44;;;4.40;57.90
14790;BME280;7486;51.010;10.366;2023-12-28T01:52:58;97969.63;;;4.33;58.08
14790;BME280;7486;51.010;10.366;2023-12-28T01:55:45;97976.53;;;4.34;57.81
14790;BME280;7486;51.010;10.366;2023-12-28T01:58:33;97972.59;;;4.30;57.72
14790;BME280;7486;51.010;10.366;2023-12-28T02:01:20;97987.34;;;4.31;57.90
14790;BME280;7486;51.010;10.366;2023-12-28T02:04:07;97986.81;;;4.36;58.99
14790;BME280;7486;51.010;10.366;2023-12-28T02:06:56;97983.50;;;4.42;59.95
14790;BME280;7486;51.010;10.366;2023-12-28T02:09:41;97996.47;;;4.43;60.55
14790;BME280;7486;51.010;10.366;2023-12-28T02:12:27;97987.34;;;4.31;61.73
14790;BME280;7486;51.010;10.366;2023-12-28T02:15:13;97987.78;;;4.43;61.33
14790;BME280;7486;51.010;10.366;2023-12-28T02:18:15;97987.16;;;4.33;61.20
14790;BME280;7486;51.010;10.366;2023-12-28T02:21:04;97991.06;;;4.45;61.72
14790;BME280;7486;51.010;10.366;2023-12-28T02:23:51;97984.53;;;4.41;62.11
14790;BME280;7486;51.010;10.366;2023-12-28T02:26:36;97991.22;;;4.43;62.43
14790;BME280;7486;51.010;10.366;2023-12-28T02:29:23;97979.97;;;4.35;61.97
14790;BME280;7486;51.010;10.366;2023-12-28T02:32:09;98015.84;;;4.65;62.08
14790;BME280;7486;51.010;10.366;2023-12-28T02:35:03;98027.44;;;4.71;62.17
14790;BME280;7486;51.010;10.366;2023-12-28T02:37:54;98023.28;;;4.53;63.53
14790;BME280;7486;51.010;10.366;2023-12-28T02:40:42;98023.94;;;4.55;63.20
14790;BME280;7486;51.010;10.366;2023-12-28T02:43:30;98023.13;;;4.55;62.87
14790;BME280;7486;51.010;10.366;2023-12-28T02:46:15;98027.97;;;4.66;63.01
14790;BME280;7486;51.010;10.366;2023-12-28T02:49:01;98015.97;;;4.72;62.76
14790;BME280;7486;51.010;10.366;2023-12-28T02:51:46;98017.59;;;4.73;63.60
14790;BME280;7486;51.010;10.366;2023-12-28T02:54:32;98005.88;;;4.60;64.93
14790;BME280;7486;51.010;10.366;2023-12-28T02:57:18;98015.41;;;4.53;64.97
14790;BME280;7486;51.010;10.366;2023-12-28T03:00:07;98041.66;;;4.53;64.99
14790;BME280;7486;51.010;10.366;2023-12-28T03:02:52;97993.50;;;4.46;64.83
14790;BME280;7486;51.010;10.366;2023-12-28T03:05:38;98002.31;;;4.53;65.52
14790;BME280;7486;51.010;10.366;2023-12-28T03:08:24;97986.19;;;4.34;66.21
14790;BME280;7486;51.010;10.366;2023-12-28T03:11:09;97989.50;;;4.28;66.33
14790;BME280;7486;51.010;10.366;2023-12-28T03:13:55;97987.72;;;4.20;66.57
14790;BME280;7486;51.010;10.366;2023-12-28T03:16:40;98011.56;;;4.41;66.64
14790;BME280;7486;51.010;10.366;2023-12-28T03:19:25;98006.03;;;4.28;66.98
14790;BME280;7486;51.010;10.366;2023-12-28T03:22:11;97999.16;;;4.27;67.04
14790;BME280;7486;51.010;10.366;2023-12-28T03:24:56;97994.16;;;4.48;66.46
14790;BME280;7486;51.010;10.366;2023-12-28T03:27:42;97998.63;;;4.62;66.17
14790;BME280;7486;51.010;10.366;2023-12-28T03:30:27;97986.28;;;4.48;66.03
14790;BME280;7486;51.010;10.366;2023-12-28T03:33:13;97972.47;;;4.24;66.75
14790;BME280;7486;51.010;10.366;2023-12-28T03:35:59;97988.59;;;4.43;66.48
14790;BME280;7486;51.010;10.366;2023-12-28T03:38:45;97981.81;;;4.49;66.03
14790;BME280;7486;51.010;10.366;2023-12-28T03:41:30;97983.25;;;4.29;66.69
14790;BME280;7486;51.010;10.366;2023-12-28T03:44:16;97998.22;;;4.20;67.42
14790;BME280;7486;51.010;10.366;2023-12-28T03:47:02;97996.56;;;4.27;66.96
14790;BME280;7486;51.010;10.366;2023-12-28T03:49:47;97995.63;;;4.43;67.19
14790;BME280;7486;51.010;10.366;2023-12-28T03:52:32;97991.25;;;4.35;67.72
14790;BME280;7486;51.010;10.366;2023-12-28T03:55:18;98005.25;;;4.20;67.78
14790;BME280;7486;51.010;10.366;2023-12-28T03:58:03;98019.81;;;4.30;67.81
14790;BME280;7486;51.010;10.366;2023-12-28T04:00:49;98031.97;;;4.15;68.07
14790;BME280;7486;51.010;10.366;2023-12-28T04:03:35;98041.63;;;4.14;68.57
14790;BME280;7486;51.010;10.366;2023-12-28T04:06:22;98004.16;;;4.14;68.05
14790;BME280;7486;51.010;10.366;2023-12-28T04:09:08;98041.13;;;4.27;68.55
14790;BME280;7486;51.010;10.366;2023-12-28T04:11:53;98016.09;;;4.16;69.49
14790;BME280;7486;51.010;10.366;2023-12-28T04:14:39;98020.97;;;4.28;68.56
14790;BME280;7486;51.010;10.366;2023-12-28T04:17:24;98031.69;;;4.02;69.72
14790;BME280;7486;51.010;10.366;2023-12-28T04:20:10;98026.75;;;4.15;69.24
14790;BME280;7486;51.010;10.366;2023-12-28T04:22:56;98006.72;;;4.22;69.32
14790;BME280;7486;51.010;10.366;2023-12-28T04:25:42;98024.13;;;4.15;70.15
14790;BME280;7486;51.010;10.366;2023-12-28T04:28:27;98029.19;;;4.16;69.87
14790;BME280;7486;51.010;10.366;2023-12-28T04:31:12;98000.31;;;3.86;70.31
14790;BME280;7486;51.010;10.366;2023-12-28T04:33:58;98047.41;;;4.10;70.51
14790;BME280;7486;51.010;10.366;2023-12-28T04:36:43;97982.00;;;3.78;70.34
14790;BME280;7486;51.010;10.366;2023-12-28T04:39:30;98030.16;;;4.24;71.45
14790;BME280;7486;51.010;10.366;2023-12-28T04:42:15;98027.34;;;4.25;71.22
14790;BME280;7486;51.010;10.366;2023-12-28T04:45:01;98025.91;;;4.23;71.48
14790;BME280;7486;51.010;10.366;2023-12-28T04:47:46;98017.25;;;4.14;72.53
14790;BME280;7486;51.010;10.366;2023-12-28T04:50:32;98039.22;;;4.13;73.27
14790;BME280;7486;51.010;10.366;2023-12-28T04:53:17;98051.03;;;4.01;74.47
14790;BME280;7486;51.010;10.366;2023-12-28T04:56:03;98047.56;;;4.08;75.25
14790;BME280;7486;51.010;10.366;2023-12-28T04:58:49;98057.22;;;4.16;74.97
14790;BME280;7486;51.010;10.366;2023-12-28T05:01:40;98070.25;;;4.32;74.43
14790;BME280;7486;51.010;10.366;2023-12-28T05:04:26;98082.38;;;4.33;74.71
14790;BME280;7486;51.010;10.366;2023-12-28T05:07:12;98083.38;;;4.32;75.62
14790;BME280;7486;51.010;10.366;2023-12-28T05:09:57;98089.63;;;4.23;76.14
14790;BME280;7486;51.010;10.366;2023-12-28T05:12:43;98076.03;;;4.28;76.71
14790;BME280;7486;51.010;10.366;2023-12-28T05:15:29;98079.16;;;4.23;77.48
14790;BME280;7486;51.010;10.366;2023-12-28T05:18:15;98089.63;;;4.23;77.28
14790;BME280;7486;51.010;10.366;2023-12-28T05:21:00;98093.28;;;4.06;78.33
14790;BME280;7486;51.010;10.366;2023-12-28T05:23:46;98094.94;;;3.91;79.91
14790;BME280;7486;51.010;10.366;2023-12-28T05:26:31;98098.72;;;3.80;80.28
14790;BME280;7486;51.010;10.366;2023-12-28T05:29:16;98089.88;;;3.89;80.54
14790;BME280;7486;51.010;10.366;2023-12-28T05:32:02;98094.44;;;4.03;80.75
14790;BME280;7486;51.010;10.366;2023-12-28T05:34:48;98100.47;;;4.12;79.65
14790;BME280;7486;51.010;10.366;2023-12-28T05:37:33;98102.78;;;4.07;80.15
14790;BME280;7486;51.010;10.366;2023-12-28T05:40:19;98115.56;;;3.94;80.57
14790;BME280;7486;51.010;10.366;2023-12-28T05:43:05;98125.06;;;3.95;81.21
14790;BME280;7486;51.010;10.366;2023-12-28T05:45:51;98119.00;;;3.94;81.03
14790;BME280;7486;51.010;10.366;2023-12-28T05:48:36;98121.13;;;3.99;81.29
14790;BME280;7486;51.010;10.366;2023-12-28T05:51:22;98120.28;;;4.14;80.23
14790;BME280;7486;51.010;10.366;2023-12-28T05:54:08;98118.66;;;4.05;80.37
14790;BME280;7486;51.010;10.366;2023-12-28T05:56:54;98116.53;;;4.09;80.98
14790;BME280;7486;51.010;10.366;2023-12-28T05:59:39;98094.44;;;3.95;81.08
14790;BME280;7486;51.010;10.366;2023-12-28T06:02:25;98120.81;;;4.10;80.78
14790;BME280;7486;51.010;10.366;2023-12-28T06:05:10;98122.16;;;3.90;81.91
14790;BME280;7486;51.010;10.366;2023-12-28T06:07:56;98119.69;;;3.96;82.40
14790;BME280;7486;51.010;10.366;2023-12-28T06:10:42;98126.38;;;3.99;81.70
14790;BME280;7486;51.010;10.366;2023-12-28T06:13:28;98122.75;;;4.16;80.79
14790;BME280;7486;51.010;10.366;2023-12-28T06:16:13;98081.53;;;3.86;81.14
14790;BME280;7486;51.010;10.366;2023-12-28T06:18:59;98135.84;;;4.08;81.25
14790;BME280;7486;51.010;10.366;2023-12-28T06:21:44;98119.78;;;4.27;80.83
14790;BME280;7486;51.010;10.366;2023-12-28T06:24:30;98119.69;;;4.51;79.74
14790;BME280;7486;51.010;10.366;2023-12-28T06:27:15;98124.19;;;4.35;80.04
14790;BME280;7486;51.010;10.366;2023-12-28T06:30:01;98129.09;;;4.38;80.24
14790;BME280;7486;51.010;10.366;2023-12-28T06:32:47;98126.00;;;4.26;80.37
14790;BME280;7486;51.010;10.366;2023-12-28T06:35:32;98130.13;;;4.12;81.27
14790;BME280;7486;51.010;10.366;2023-12-28T06:38:17;98128.00;;;4.08;82.03
14790;BME280;7486;51.010;10.366;2023-12-28T06:41:10;98114.94;;;4.00;83.05
14790;BME280;7486;51.010;10.366;2023-12-28T06:43:56;98114.59;;;4.03;82.73
14790;BME280;7486;51.010;10.366;2023-12-28T06:46:42;98125.03;;;4.11;81.69
14790;BME280;7486;51.010;10.366;2023-12-28T06:49:27;98129.25;;;4.36;80.94
14790;BME280;7486;51.010;10.366;2023-12-28T06:52:13;98126.13;;;4.41;80.41
14790;BME280;7486;51.010;10.366;2023-12-28T06:54:58;98122.88;;;4.31;80.46
14790;BME280;7486;51.010;10.366;2023-12-28T06:57:44;98141.50;;;4.44;80.08
14790;BME280;7486;51.010;10.366;2023-12-28T07:00:29;98120.75;;;4.18;81.01
14790;BME280;7486;51.010;10.366;2023-12-28T07:03:15;98099.78;;;4.18;80.95
14790;BME280;7486;51.010;10.366;2023-12-28T07:06:01;98150.97;;;4.61;79.79
14790;BME280;7486;51.010;10.366;2023-12-28T07:08:46;98145.56;;;4.54;79.82
14790;BME280;7486;51.010;10.366;2023-12-28T07:11:32;98126.31;;;4.31;80.52
14790;BME280;7486;51.010;10.366;2023-12-28T07:14:17;98128.31;;;4.13;81.40
14790;BME280;7486;51.010;10.366;2023-12-28T07:17:03;98060.63;;;3.45;83.81
14790;BME280;7486;51.010;10.366;2023-12-28T07:19:49;98137.19;;;3.88;83.30
14790;BME280;7486;51.010;10.366;2023-12-28T07:22:35;98103.50;;;3.69;83.27
14790;BME280;7486;51.010;10.366;2023-12-28T07:25:20;98146.19;;;4.18;82.95
14790;BME280;7486;51.010;10.366;2023-12-28T07:28:06;98128.66;;;4.10;83.14
14790;BME280;7486;51.010;10.366;2023-12-28T07:30:52;98137.31;;;4.18;82.52
14790;BME280;7486;51.010;10.366;2023-12-28T07:33:38;98150.56;;;4.25;81.59
14790;BME280;7486;51.010;10.366;2023-12-28T07:36:24;98143.56;;;4.18;82.79
14790;BME280;7486;51.010;10.366;2023-12-28T07:39:10;98151.72;;;4.31;81.71
14790;BME280;7486;51.010;10.366;2023-12-28T07:41:55;98153.22;;;4.17;82.51
14790;BME280;7486;51.010;10.366;2023-12-28T07:44:41;98136.22;;;3.89;83.81
14790;BME280;7486;51.010;10.366;2023-12-28T07:47:26;98148.03;;;3.77;85.40
14790;BME280;7486;51.010;10.366;2023-12-28T07:50:12;98152.59;;;3.91;84.77
14790;BME280;7486;51.010;10.366;2023-12-28T07:52:57;98146.84;;;3.87;85.04
14790;BME280;7486;51.010;10.366;2023-12-28T07:55:43;98144.72;;;3.91;84.83
14790;BME280;7486;51.010;10.366;2023-12-28T07:58:28;98137.06;;;3.73;85.73
14790;BME280;7486;51.010;10.366;2023-12-28T08:01:14;98134.75;;;3.86;85.29
14790;BME280;7486;51.010;10.366;2023-12-28T08:03:59;98137.88;;;3.82;85.21
14790;BME280;7486;51.010;10.366;2023-12-28T08:06:44;98143.59;;;3.93;84.95
14790;BME280;7486;51.010;10.366;2023-12-28T08:09:30;98146.34;;;4.08;84.25
14790;BME280;7486;51.010;10.366;2023-12-28T08:12:16;98144.38;;;4.10;84.48
14790;BME280;7486;51.010;10.366;2023-12-28T08:15:02;98154.22;;;4.00;84.51
14790;BME280;7486;51.010;10.366;2023-12-28T08:17:47;98148.81;;;4.09;84.64
14790;BME280;7486;51.010;10.366;2023-12-28T08:20:33;98158.78;;;4.22;83.92
14790;BME280;7486;51.010;10.366;2023-12-28T08:23:18;98153.53;;;4.22;83.53
14790;BME280;7486;51.010;10.366;2023-12-28T08:26:03;98158.63;;;4.15;83.86
14790;BME280;7486;51.010;10.366;2023-12-28T08:28:49;98158.75;;;4.30;82.99
14790;BME280;7486;51.010;10.366;2023-12-28T08:31:35;98144.19;;;4.20;82.88
14790;BME280;7486;51.010;10.366;2023-12-28T08:34:21;98145.94;;;4.43;82.37
14790;BME280;7486;51.010;10.366;2023-12-28T08:37:06;98151.50;;;4.48;82.07
14790;BME280;7486;51.010;10.366;2023-12-28T08:39:52;98151.81;;;4.53;81.27
14790;BME280;7486;51.010;10.366;2023-12-28T08:42:37;98155.25;;;4.46;81.85
14790;BME280;7486;51.010;10.366;2023-12-28T08:45:23;98155.13;;;4.39;81.66
14790;BME280;7486;51.010;10.366;2023-12-28T08:48:09;98138.28;;;4.34;82.04
14790;BME280;7486;51.010;10.366;2023-12-28T08:50:54;98126.97;;;4.25;82.60
14790;BME280;7486;51.010;10.366;2023-12-28T08:53:43;98146.75;;;4.44;81.76
14790;BME280;7486;51.010;10.366;2023-12-28T08:56:28;98135.94;;;4.39;81.26
14790;BME280;7486;51.010;10.366;2023-12-28T08:59:14;98150.63;;;4.56;81.56
14790;BME280;7486;51.010;10.366;2023-12-28T09:01:59;98143.91;;;4.61;80.82
14790;BME280;7486;51.010;10.366;2023-12-28T09:04:45;98148.69;;;4.58;81.96
14790;BME280;7486;51.010;10.366;2023-12-28T09:07:30;98156.72;;;4.56;81.15
14790;BME280;7486;51.010;10.366;2023-12-28T09:10:15;98154.44;;;4.53;81.15
14790;BME280;7486;51.010;10.366;2023-12-28T09:13:04;98153.25;;;4.64;80.77
14790;BME280;7486;51.010;10.366;2023-12-28T09:15:49;98157.88;;;4.54;81.71
14790;BME280;7486;51.010;10.366;2023-12-28T09:18:36;98164.78;;;4.47;82.17
14790;BME280;7486;51.010;10.366;2023-12-28T09:21:22;98171.25;;;4.75;80.83
14790;BME280;7486;51.010;10.366;2023-12-28T09:24:08;98148.56;;;4.35;81.23
14790;BME280;7486;51.010;10.366;2023-12-28T09:26:53;98169.53;;;4.51;81.41
14790;BME280;7486;51.010;10.366;2023-12-28T09:29:39;98171.44;;;4.65;81.29
14790;BME280;7486;51.010;10.366;2023-12-28T09:32:24;98177.69;;;4.64;80.92
14790;BME280;7486;51.010;10.366;2023-12-28T09:35:09;98175.75;;;4.58;81.46
14790;BME280;7486;51.010;10.366;2023-12-28T09:37:55;98171.47;;;4.49;82.28
14790;BME280;7486;51.010;10.366;2023-12-28T09:40:42;98173.06;;;4.66;81.29
14790;BME280;7486;51.010;10.366;2023-12-28T09:43:31;98171.09;;;4.68;81.04
14790;BME280;7486;51.010;10.366;2023-12-28T09:46:19;98173.81;;;4.83;80.41
14790;BME280;7486;51.010;10.366;2023-12-28T09:49:05;98180.09;;;4.74;80.06
14790;BME280;7486;51.010;10.366;2023-12-28T09:51:50;98177.06;;;4.93;79.78
14790;BME280;7486;51.010;10.366;2023-12-28T09:54:36;98173.66;;;4.85;79.47
14790;BME280;7486;51.010;10.366;2023-12-28T09:57:22;98188.81;;;4.66;80.31
14790;BME280;7486;51.010;10.366;2023-12-28T10:00:08;98186.16;;;4.83;80.73
14790;BME280;7486;51.010;10.366;2023-12-28T10:02:56;98184.63;;;4.96;80.04
14790;BME280;7486;51.010;10.366;2023-12-28T10:05:42;98187.22;;;4.96;79.42
14790;BME280;7486;51.010;10.366;2023-12-28T10:08:28;98200.09;;;5.22;79.42
14790;BME280;7486;51.010;10.366;2023-12-28T10:11:19;98200.09;;;5.22;79.24
14790;BME280;7486;51.010;10.366;2023-12-28T10:14:05;98201.19;;;5.28;78.16
14790;BME280;7486;51.010;10.366;2023-12-28T10:16:50;98211.88;;;5.26;77.85
14790;BME280;7486;51.010;10.366;2023-12-28T10:19:37;98197.06;;;5.33;78.85
14790;BME280;7486;51.010;10.366;2023-12-28T10:22:23;98197.56;;;5.59;78.73
14790;BME280;7486;51.010;10.366;2023-12-28T10:25:09;98207.88;;;5.38;77.98
14790;BME280;7486;51.010;10.366;2023-12-28T10:27:54;98206.78;;;5.55;77.87
14790;BME280;7486;51.010;10.366;2023-12-28T10:30:40;98208.06;;;5.59;77.43
14790;BME280;7486;51.010;10.366;2023-12-28T10:33:26;98219.13;;;5.78;76.50
14790;BME280;7486;51.010;10.366;2023-12-28T10:36:14;98171.16;;;5.30;77.07
14790;BME280;7486;51.010;10.366;2023-12-28T10:39:01;98201.69;;;5.77;76.61
14790;BME280;7486;51.010;10.366;2023-12-28T10:41:49;98211.44;;;5.91;76.82
14790;BME280;7486;51.010;10.366;2023-12-28T10:44:35;98200.06;;;6.13;75.82
14790;BME280;7486;51.010;10.366;2023-12-28T10:47:25;98210.38;;;6.00;75.25
14790;BME280;7486;51.010;10.366;2023-12-28T10:50:14;98199.41;;;5.96;75.44
14790;BME280;7486;51.010;10.366;2023-12-28T10:53:11;98195.91;;;6.04;75.20
14790;BME280;7486;51.010;10.366;2023-12-28T10:56:22;98204.19;;;5.93;75.44
14790;BME280;7486;51.010;10.366;2023-12-28T10:59:24;98195.97;;;5.96;74.63
14790;BME280;7486;51.010;10.366;2023-12-28T11:02:15;98200.00;;;5.84;75.97
14790;BME280;7486;51.010;10.366;2023-12-28T11:05:02;98191.06;;;5.93;75.57
14790;BME280;7486;51.010;10.366;2023-12-28T11:07:49;98197.31;;;5.92;75.27
14790;BME280;7486;51.010;10.366;2023-12-28T11:10:37;98190.13;;;6.08;74.36
14790;BME280;7486;51.010;10.366;2023-12-28T11:13:24;98179.88;;;6.13;74.57
14790;BME280;7486;51.010;10.366;2023-12-28T11:16:10;98164.25;;;5.97;73.63
14790;BME280;7486;51.010;10.366;2023-12-28T11:18:56;98175.94;;;5.95;74.34
14790;BME280;7486;51.010;10.366;2023-12-28T11:21:43;98176.59;;;6.11;74.76
14790;BME280;7486;51.010;10.366;2023-12-28T11:24:30;98169.44;;;6.20;73.39
14790;BME280;7486;51.010;10.366;2023-12-28T11:27:16;98176.59;;;6.11;73.35
14790;BME280;7486;51.010;10.366;2023-12-28T11:30:05;98174.69;;;6.20;73.79
14790;BME280;7486;51.010;10.366;2023-12-28T11:32:56;98168.84;;;6.47;73.09
14790;BME280;7486;51.010;10.366;2023-12-28T11:35:42;98154.44;;;6.43;72.79
14790;BME280;7486;51.010;10.366;2023-12-28T11:38:27;98155.47;;;6.05;72.94
14790;BME280;7486;51.010;10.366;2023-12-28T11:41:16;98153.03;;;6.18;72.02
14790;BME280;7486;51.010;10.366;2023-12-28T11:44:05;98156.66;;;6.17;72.48
14790;BME280;7486;51.010;10.366;2023-12-28T11:46:50;98121.56;;;6.25;72.43
14790;BME280;7486;51.010;10.366;2023-12-28T11:49:36;98151.59;;;6.59;71.82
14790;BME280;7486;51.010;10.366;2023-12-28T11:52:27;98144.28;;;6.40;72.01
14790;BME280;7486;51.010;10.366;2023-12-28T11:55:20;98134.22;;;6.44;71.77
14790;BME280;7486;51.010;10.366;2023-12-28T11:58:06;98129.28;;;6.26;71.45
14790;BME280;7486;51.010;10.366;2023-12-28T12:00:52;98128.38;;;6.34;71.44
14790;BME280;7486;51.010;10.366;2023-12-28T12:03:37;98139.47;;;6.44;70.79
14790;BME280;7486;51.010;10.366;2023-12-28T12:06:23;98133.63;;;6.19;70.98
14790;BME280;7486;51.010;10.366;2023-12-28T12:09:11;98123.03;;;6.42;70.20
14790;BME280;7486;51.010;10.366;2023-12-28T12:11:57;98124.22;;;6.39;69.89
14790;BME280;7486;51.010;10.366;2023-12-28T12:14:43;98121.66;;;6.16;70.60
14790;BME280;7486;51.010;10.366;2023-12-28T12:17:28;98130.47;;;6.38;70.00
14790;BME280;7486;51.010;10.366;2023-12-28T12:20:14;98129.28;;;6.41;70.61
14790;BME280;7486;51.010;10.366;2023-12-28T12:23:00;98121.94;;;6.36;69.27
14790;BME280;7486;51.010;10.366;2023-12-28T12:25:46;98121.59;;;6.39;68.61
14790;BME280;7486;51.010;10.366;2023-12-28T12:28:32;98121.47;;;6.47;68.81
14790;BME280;7486;51.010;10.366;2023-12-28T12:31:18;98122.81;;;6.58;69.38
14790;BME280;7486;51.010;10.366;2023-12-28T12:34:04;98115.50;;;6.53;69.69
14790;BME280;7486;51.010;10.366;2023-12-28T12:36:49;98121.56;;;6.68;68.75
14790;BME280;7486;51.010;10.366;2023-12-28T12:39:35;98106.69;;;6.76;67.88
14790;BME280;7486;51.010;10.366;2023-12-28T12:42:22;98080.56;;;6.74;67.72
14790;BME280;7486;51.010;10.366;2023-12-28T12:45:08;98104.34;;;6.81;67.29
14790;BME280;7486;51.010;10.366;2023-12-28T12:47:54;98111.84;;;6.98;67.19
14790;BME280;7486;51.010;10.366;2023-12-28T12:50:39;98108.91;;;7.08;67.58
14790;BME280;7486;51.010;10.366;2023-12-28T12:53:25;98109.50;;;7.10;66.79
14790;BME280;7486;51.010;10.366;2023-12-28T12:56:10;98096.28;;;7.03;67.75
14790;BME280;7486;51.010;10.366;2023-12-28T12:58:56;98107.28;;;7.28;67.67
14790;BME280;7486;51.010;10.366;2023-12-28T13:01:43;98098.28;;;7.44;66.62
14790;BME280;7486;51.010;10.366;2023-12-28T13:04:29;98090.09;;;7.53;66.66
14790;BME280;7486;51.010;10.366;2023-12-28T13:07:14;98091.47;;;7.28;67.27
14790;BME280;7486;51.010;10.366;2023-12-28T13:10:00;98089.47;;;7.30;67.38
14790;BME280;7486;51.010;10.366;2023-12-28T13:12:46;98051.19;;;7.34;66.01
14790;BME280;7486;51.010;10.366;2023-12-28T13:15:31;98087.53;;;7.39;66.72
14790;BME280;7486;51.010;10.366;2023-12-28T13:18:17;98088.41;;;7.46;66.61
14790;BME280;7486;51.010;10.366;2023-12-28T13:21:03;98097.84;;;7.61;65.93
14790;BME280;7486;51.010;10.366;2023-12-28T13:23:49;98091.75;;;7.61;65.21
14790;BME280;7486;51.010;10.366;2023-12-28T13:26:35;98106.41;;;7.63;65.66
14790;BME280;7486;51.010;10.366;2023-12-28T13:29:20;98096.25;;;7.39;66.04
14790;BME280;7486;51.010;10.366;2023-12-28T13:32:06;98092.63;;;7.19;66.08
14790;BME280;7486;51.010;10.366;2023-12-28T13:34:51;98095.31;;;6.90;67.53
14790;BME280;7486;51.010;10.366;2023-12-28T13:37:37;98068.47;;;6.80;67.74
14790;BME280;7486;51.010;10.366;2023-12-28T13:40:22;98104.72;;;6.99;67.27
14790;BME280;7486;51.010;10.366;2023-12-28T13:43:08;98102.97;;;7.06;67.34
14790;BME280;7486;51.010;10.366;2023-12-28T13:45:53;98100.28;;;6.99;67.19
14790;BME280;7486;51.010;10.366;2023-12-28T13:48:38;98086.19;;;7.07;66.79
14790;BME280;7486;51.010;10.366;2023-12-28T13:51:25;98082.53;;;6.87;66.94
14790;BME280;7486;51.010;10.366;2023-12-28T13:54:10;98074.88;;;6.92;66.89
14790;BME280;7486;51.010;10.366;2023-12-28T13:56:56;98014.72;;;6.38;67.22
14790;BME280;7486;51.010;10.366;2023-12-28T13:59:43;98084.38;;;6.72;67.50
14790;BME280;7486;51.010;10.366;2023-12-28T14:02:28;98076.03;;;6.53;68.27
14790;BME280;7486;51.010;10.366;2023-12-28T14:05:15;98079.44;;;6.68;68.98
14790;BME280;7486;51.010;10.366;2023-12-28T14:08:01;98080.63;;;6.66;67.36
14790;BME280;7486;51.010;10.366;2023-12-28T14:10:46;98085.38;;;6.56;67.74
14790;BME280;7486;51.010;10.366;2023-12-28T14:13:32;98079.56;;;6.60;66.79
14790;BME280;7486;51.010;10.366;2023-12-28T14:16:18;98080.03;;;6.49;67.20
14790;BME280;7486;51.010;10.366;2023-12-28T14:19:03;98082.94;;;6.25;68.08
14790;BME280;7486;51.010;10.366;2023-12-28T14:21:50;98081.59;;;6.29;68.41
14790;BME280;7486;51.010;10.366;2023-12-28T14:24:35;98073.53;;;6.16;68.40
14790;BME280;7486;51.010;10.366;2023-12-28T14:27:21;98079.94;;;6.28;68.08
14790;BME280;7486;51.010;10.366;2023-12-28T14:30:07;98075.41;;;6.37;68.28
14790;BME280;7486;51.010;10.366;2023-12-28T14:32:53;98079.84;;;6.36;67.94
14790;BME280;7486;51.010;10.366;2023-12-28T14:35:39;98072.13;;;6.49;67.63
14790;BME280;7486;51.010;10.366;2023-12-28T14:38:27;98067.31;;;6.53;67.19
14790;BME280;7486;51.010;10.366;2023-12-28T14:41:12;98070.69;;;6.17;68.47
14790;BME280;7486;51.010;10.366;2023-12-28T14:43:58;98075.31;;;6.30;68.72
14790;BME280;7486;51.010;10.366;2023-12-28T14:46:43;98052.47;;;6.16;68.61
14790;BME280;7486;51.010;10.366;2023-12-28T14:49:29;98065.97;;;6.28;68.50
14790;BME280;7486;51.010;10.366;2023-12-28T14:52:15;98062.88;;;6.39;68.14